Time;durP1;ratioP1;P1;durP2;ratioP2;P2;SDS_P1;SDS_P2;PMS_P1;PMS_P2;Temp;Humidity;BMP_temperature;BMP_pressure;BME280_temperature;BME280_humidity;BME280_pressure;Samples;Min_cycle;Max_cycle;Signal;HPM_P1;HPM_P2
2022/09/17 00:02:21;;;;;;;;;;;;;;;11.21;81.83;101247.94;5129014;27;19968;-56
2022/09/17 00:04:47;;;;;;;;;;;;;;;11.20;81.71;101255.03;5111371;27;20007;-56
2022/09/17 00:07:12;;;;;;;;;;;;;;;11.22;81.12;101249.63;5118695;27;19998;-56
2022/09/17 00:09:39;;;;;;;;;;;;;;;11.23;82.48;101251.34;5129611;27;19919;-55
2022/09/17 00:12:05;;;;;;;;;;;;;;;11.17;82.54;101257.88;5116044;27;19949;-55
2022/09/17 00:14:30;;;;;;;;;;;;;;;11.19;83.16;101271.09;5112127;27;20728;-56
2022/09/17 00:16:56;;;;;;;;;;;;;;;11.20;83.70;101262.16;5116994;27;20370;-55
2022/09/17 00:19:22;;;;;;;;;;;;;;;11.18;82.41;101267.59;5113771;28;19969;-56
2022/09/17 00:21:48;;;;;;;;;;;;;;;11.19;81.99;101268.44;5131337;27;19926;-55
2022/09/17 00:24:14;;;;;;;;;;;;;;;11.18;83.09;101267.59;5114456;27;19921;-55
2022/09/17 00:26:39;;;;;;;;;;;;;;;11.23;83.00;101265.50;5105165;27;19920;-55
2022/09/17 00:29:05;;;;;;;;;;;;;;;11.17;82.48;101257.88;5098406;28;19964;-55
2022/09/17 00:31:31;;;;;;;;;;;;;;;11.14;83.83;101261.56;5094996;28;19954;-55
2022/09/17 00:33:57;;;;;;;;;;;;;;;11.12;83.88;101260.81;5094970;28;20266;-55
2022/09/17 00:36:23;;;;;;;;;;;;;;;11.15;83.81;101267.78;5095139;27;20381;-56
2022/09/17 00:38:49;;;;;;;;;;;;;;;11.15;84.38;101265.13;5114022;27;19916;-55
2022/09/17 00:41:14;;;;;;;;;;;;;;;11.16;84.02;101277.47;5126037;27;20018;-56
2022/09/17 00:43:41;;;;;;;;;;;;;;;11.19;83.90;101271.97;5132268;27;20007;-56
2022/09/17 00:46:16;;;;;;;;;;;;;;;11.20;83.76;101270.16;5132412;27;19961;-56
2022/09/17 00:48:44;;;;;;;;;;;;;;;11.23;83.11;101272.63;5116402;27;19916;-55
2022/09/17 00:51:14;;;;;;;;;;;;;;;11.21;84.46;101270.06;5126358;27;19947;-55
2022/09/17 00:53:39;;;;;;;;;;;;;;;11.24;82.77;101263.72;5110607;27;19916;-55
2022/09/17 00:56:18;;;;;;;;;;;;;;;11.22;83.73;101268.25;5132472;27;19919;-56
2022/09/17 00:58:44;;;;;;;;;;;;;;;11.20;83.00;101267.50;5109185;27;19919;-55
2022/09/17 01:01:09;;;;;;;;;;;;;;;11.17;85.36;101276.50;5127265;27;20022;-55
2022/09/17 01:03:35;;;;;;;;;;;;;;;11.16;84.27;101282.78;5132578;27;19998;-55
2022/09/17 01:06:06;;;;;;;;;;;;;;;11.17;85.13;101279.16;5111486;27;19915;-56
2022/09/17 01:08:51;;;;;;;;;;;;;;;11.17;83.53;101275.66;5098666;27;19968;-55
2022/09/17 01:11:34;;;;;;;;;;;;;;;11.18;83.68;101275.59;5128164;27;20296;-56
2022/09/17 01:14:12;;;;;;;;;;;;;;;11.21;84.22;101282.53;5109561;27;19964;-56
2022/09/17 01:16:52;;;;;;;;;;;;;;;11.21;84.33;101274.53;5099549;28;19912;-55
2022/09/17 01:19:21;;;;;;;;;;;;;;;11.19;84.22;101281.75;5117907;27;20018;-55
2022/09/17 01:22:05;;;;;;;;;;;;;;;11.18;85.15;101283.56;5117256;27;20378;-56
2022/09/17 01:24:42;;;;;;;;;;;;;;;11.20;84.49;101288.78;5112268;28;19978;-56
2022/09/17 01:27:21;;;;;;;;;;;;;;;11.21;84.91;101282.53;5131469;27;19915;-56
2022/09/17 01:30:11;;;;;;;;;;;;;;;11.21;84.35;101288.72;5131217;27;19922;-55
2022/09/17 01:32:54;;;;;;;;;;;;;;;11.20;84.49;101291.44;5130255;28;20360;-55
2022/09/17 01:35:24;;;;;;;;;;;;;;;11.21;85.20;101299.38;5131832;28;20014;-56
2022/09/17 01:37:49;;;;;;;;;;;;;;;11.24;84.96;101296.53;5108335;28;19919;-56
2022/09/17 01:40:14;;;;;;;;;;;;;;;11.24;84.69;101295.66;5121698;28;20422;-55
2022/09/17 01:43:09;;;;;;;;;;;;;;;11.25;84.19;101292.91;5096222;28;19951;-56
2022/09/17 01:45:38;;;;;;;;;;;;;;;11.26;85.15;101297.25;5122731;28;19916;-56
2022/09/17 01:48:10;;;;;;;;;;;;;;;11.31;83.18;101300.53;5130788;28;19916;-56
2022/09/17 01:50:38;;;;;;;;;;;;;;;11.27;84.48;101304.31;5129722;28;19922;-56
2022/09/17 01:53:04;;;;;;;;;;;;;;;11.33;83.74;101311.09;5131459;28;19938;-56
2022/09/17 01:55:34;;;;;;;;;;;;;;;11.34;84.37;101305.66;5113286;28;19968;-56
2022/09/17 01:58:20;;;;;;;;;;;;;;;11.34;83.24;101304.81;5128205;28;19977;-56
2022/09/17 02:00:50;;;;;;;;;;;;;;;11.33;83.32;101311.09;5098249;28;20420;-56
2022/09/17 02:03:17;;;;;;;;;;;;;;;11.31;84.02;101302.34;5131696;28;19919;-56
2022/09/17 02:05:54;;;;;;;;;;;;;;;11.29;84.29;101305.06;5129750;27;20385;-55
2022/09/17 02:08:22;;;;;;;;;;;;;;;11.26;83.40;101297.25;5119656;27;19915;-56
2022/09/17 02:10:51;;;;;;;;;;;;;;;11.21;82.78;101299.38;5124729;27;19955;-55
2022/09/17 02:13:31;;;;;;;;;;;;;;;11.20;83.88;101302.94;5135073;27;20335;-56
2022/09/17 02:16:02;;;;;;;;;;;;;;;11.18;83.66;101304.88;5124930;27;20440;-56
2022/09/17 02:18:30;;;;;;;;;;;;;;;11.18;84.43;101304.00;5119897;27;19959;-55
2022/09/17 02:21:02;;;;;;;;;;;;;;;11.14;84.10;101298.84;5116763;27;19924;-55
2022/09/17 02:23:29;;;;;;;;;;;;;;;11.12;83.99;101292.78;5115810;28;20304;-56
2022/09/17 02:26:01;;;;;;;;;;;;;;;11.16;84.26;101297.91;5118893;27;20385;-56
2022/09/17 02:28:35;;;;;;;;;;;;;;;11.18;83.56;101307.53;5115753;28;20263;-55
2022/09/17 02:31:00;;;;;;;;;;;;;;;11.19;83.89;101305.72;5105131;28;19916;-55
2022/09/17 02:33:27;;;;;;;;;;;;;;;11.19;83.30;101309.22;5132351;27;19968;-56
2022/09/17 02:35:52;;;;;;;;;;;;;;;11.17;83.80;101311.13;5132155;27;20301;-55
2022/09/17 02:38:24;;;;;;;;;;;;;;;11.16;84.09;101308.56;5133166;27;19920;-56
2022/09/17 02:40:53;;;;;;;;;;;;;;;11.16;84.17;101319.22;5128527;27;19920;-56
2022/09/17 02:43:18;;;;;;;;;;;;;;;11.15;84.00;101313.03;5115624;28;19912;-55
2022/09/17 02:45:53;;;;;;;;;;;;;;;11.13;83.39;101318.44;5106050;27;20358;-56
2022/09/17 02:48:34;;;;;;;;;;;;;;;11.11;83.46;101322.97;5114156;27;19922;-55
2022/09/17 02:51:02;;;;;;;;;;;;;;;11.10;83.04;101321.28;5123995;27;19915;-55
2022/09/17 02:53:31;;;;;;;;;;;;;;;11.10;83.02;101328.41;5132133;27;20435;-55
2022/09/17 02:56:10;;;;;;;;;;;;;;;11.11;83.52;101322.13;5134559;27;19927;-55
2022/09/17 02:58:52;;;;;;;;;;;;;;;11.08;83.09;101320.50;5135708;27;20056;-56
2022/09/17 03:01:28;;;;;;;;;;;;;;;11.04;83.69;101324.28;5118382;27;20592;-56
2022/09/17 03:03:55;;;;;;;;;;;;;;;10.98;83.10;101321.13;5134499;27;19922;-55
2022/09/17 03:06:20;;;;;;;;;;;;;;;10.95;83.33;101326.63;5115482;27;19927;-55
2022/09/17 03:08:46;;;;;;;;;;;;;;;10.95;83.35;101323.97;5115770;27;19915;-56
2022/09/17 03:11:11;;;;;;;;;;;;;;;10.93;83.26;101323.19;5133792;27;19922;-55
2022/09/17 03:13:37;;;;;;;;;;;;;;;10.90;83.37;101324.22;5115965;27;19930;-55
2022/09/17 03:16:03;;;;;;;;;;;;;;;10.87;83.14;101324.41;5122386;27;19961;-55
2022/09/17 03:18:28;;;;;;;;;;;;;;;10.85;81.80;101324.50;5105148;27;19922;-55
2022/09/17 03:20:53;;;;;;;;;;;;;;;10.81;83.37;101312.28;5103711;28;19927;-55
2022/09/17 03:23:18;;;;;;;;;;;;;;;10.80;83.28;101323.88;5114130;28;19912;-55
2022/09/17 03:25:45;;;;;;;;;;;;;;;10.81;83.21;101322.06;5121465;27;20432;-55
2022/09/17 03:28:10;;;;;;;;;;;;;;;10.82;83.97;101318.47;5134968;27;20332;-55
2022/09/17 03:30:35;;;;;;;;;;;;;;;10.82;83.11;101327.31;5133454;27;19951;-55
2022/09/17 03:33:00;;;;;;;;;;;;;;;10.82;83.59;101313.13;5132553;27;19916;-56
2022/09/17 03:35:26;;;;;;;;;;;;;;;10.82;83.77;101311.34;5132389;27;19915;-55
2022/09/17 03:37:51;;;;;;;;;;;;;;;10.81;84.06;101308.78;5130604;27;19921;-56
2022/09/17 03:40:16;;;;;;;;;;;;;;;10.77;84.48;101313.41;5127488;27;19920;-56
2022/09/17 03:42:41;;;;;;;;;;;;;;;10.79;84.41;101314.16;5113485;27;20391;-56
2022/09/17 03:45:07;;;;;;;;;;;;;;;10.78;84.07;101308.94;5133566;27;19919;-56
2022/09/17 03:47:32;;;;;;;;;;;;;;;10.80;83.82;101304.41;5127926;27;20416;-56
2022/09/17 03:50:00;;;;;;;;;;;;;;;10.77;83.97;101309.91;5115753;27;19915;-55
2022/09/17 03:52:25;;;;;;;;;;;;;;;10.77;83.38;101320.56;5133281;27;19980;-55
2022/09/17 03:54:50;;;;;;;;;;;;;;;10.77;83.23;101317.88;5116589;27;20331;-56
2022/09/17 03:57:18;;;;;;;;;;;;;;;10.75;83.21;101317.97;5111987;28;19916;-55
2022/09/17 03:59:43;;;;;;;;;;;;;;;10.71;83.70;101319.09;5115676;27;19932;-56
2022/09/17 04:02:08;;;;;;;;;;;;;;;10.67;83.12;101329.03;5113315;27;19920;-56
2022/09/17 04:04:34;;;;;;;;;;;;;;;10.61;83.36;101329.34;5127226;27;20214;-56
2022/09/17 04:06:59;;;;;;;;;;;;;;;10.56;83.46;101320.81;5123174;27;20010;-56
2022/09/17 04:09:24;;;;;;;;;;;;;;;10.45;83.42;101310.75;5114338;27;20189;-56
2022/09/17 04:11:49;;;;;;;;;;;;;;;10.54;82.71;101328.00;5127603;27;19916;-55
2022/09/17 04:14:15;;;;;;;;;;;;;;;10.52;83.22;101324.56;5131247;27;19915;-55
2022/09/17 04:16:40;;;;;;;;;;;;;;;10.51;83.76;101329.97;5116143;27;19912;-55
2022/09/17 04:19:05;;;;;;;;;;;;;;;10.52;83.37;101334.34;5125554;27;19916;-55
2022/09/17 04:21:30;;;;;;;;;;;;;;;10.49;83.92;101338.03;5128791;27;19923;-56
2022/09/17 04:23:56;;;;;;;;;;;;;;;10.48;83.99;101338.97;5127084;27;19920;-56
2022/09/17 04:26:21;;;;;;;;;;;;;;;10.47;83.45;101339.94;5129162;27;19916;-56
2022/09/17 04:28:46;;;;;;;;;;;;;;;10.46;83.48;101335.53;5117466;27;19959;-55
2022/09/17 04:31:14;;;;;;;;;;;;;;;10.45;83.48;101336.50;5114988;27;20299;-56
2022/09/17 04:33:39;;;;;;;;;;;;;;;10.44;82.59;101340.94;5131673;27;20320;-56
2022/09/17 04:36:04;;;;;;;;;;;;;;;10.43;83.29;101338.38;5130554;27;19963;-55
2022/09/17 04:38:29;;;;;;;;;;;;;;;10.44;81.86;101340.94;5128998;27;20258;-55
2022/09/17 04:40:57;;;;;;;;;;;;;;;10.44;83.07;101346.28;5130244;27;19930;-56
2022/09/17 04:43:22;;;;;;;;;;;;;;;10.44;83.21;101348.94;5114016;27;20377;-56
2022/09/17 04:45:49;;;;;;;;;;;;;;;10.45;83.43;101361.28;5092265;27;19912;-55
2022/09/17 04:48:15;;;;;;;;;;;;;;;10.48;83.68;101359.41;5123419;27;19960;-56
2022/09/17 04:50:40;;;;;;;;;;;;;;;10.50;83.80;101355.72;5117679;27;19915;-55
2022/09/17 04:53:05;;;;;;;;;;;;;;;10.50;83.71;101352.19;5094561;28;19912;-56
2022/09/17 04:55:30;;;;;;;;;;;;;;;10.57;83.51;101335.81;5113214;28;19911;-55
2022/09/17 04:57:56;;;;;;;;;;;;;;;10.43;84.10;101333.91;5094563;28;19931;-56
2022/09/17 05:00:21;;;;;;;;;;;;;;;10.45;84.38;101334.69;5117492;27;19970;-56
2022/09/17 05:02:48;;;;;;;;;;;;;;;10.48;84.08;101335.47;5131764;27;19915;-56
2022/09/17 05:05:14;;;;;;;;;;;;;;;10.49;84.26;101340.69;5111262;27;20014;-55
2022/09/17 05:07:40;;;;;;;;;;;;;;;10.50;83.99;101342.41;5091734;28;19958;-56
2022/09/17 05:10:05;;;;;;;;;;;;;;;10.54;83.81;101348.44;5095863;27;19916;-55
2022/09/17 05:12:31;;;;;;;;;;;;;;;10.52;83.98;101344.97;5094534;28;19912;-56
2022/09/17 05:14:56;;;;;;;;;;;;;;;10.50;84.43;101349.50;5094431;28;19918;-56
2022/09/17 05:17:21;;;;;;;;;;;;;;;10.45;83.06;101350.63;5112574;28;19915;-55
2022/09/17 05:19:46;;;;;;;;;;;;;;;10.43;83.95;101356.97;5117879;27;19915;-55
2022/09/17 05:22:12;;;;;;;;;;;;;;;10.40;83.86;101354.47;5113869;28;19915;-56
2022/09/17 05:24:38;;;;;;;;;;;;;;;10.39;84.17;101356.28;5133270;27;19915;-56
2022/09/17 05:27:04;;;;;;;;;;;;;;;10.31;83.89;101363.81;5132958;27;19967;-56
2022/09/17 05:29:29;;;;;;;;;;;;;;;10.31;83.64;101365.63;5132323;27;19911;-56
2022/09/17 05:31:54;;;;;;;;;;;;;;;10.31;82.89;101373.59;5131916;27;20511;-56
2022/09/17 05:34:20;;;;;;;;;;;;;;;10.29;83.85;101375.47;5132864;28;19915;-55
2022/09/17 05:36:45;;;;;;;;;;;;;;;10.28;84.20;101377.28;5112204;28;19923;-55
2022/09/17 05:39:10;;;;;;;;;;;;;;;10.27;84.13;101377.38;5112440;28;19916;-56
2022/09/17 05:41:35;;;;;;;;;;;;;;;10.28;84.10;101371.97;5116133;28;20261;-56
2022/09/17 05:44:01;;;;;;;;;;;;;;;10.27;83.93;101369.41;5116925;28;19912;-56
2022/09/17 05:46:26;;;;;;;;;;;;;;;10.25;83.21;101377.41;5117741;27;19916;-56
2022/09/17 05:48:54;;;;;;;;;;;;;;;10.26;83.56;101370.28;5098066;28;19912;-56
2022/09/17 05:51:19;;;;;;;;;;;;;;;10.25;83.95;101380.06;5116052;28;19915;-56
2022/09/17 05:53:44;;;;;;;;;;;;;;;10.29;83.51;101380.78;5116399;28;20275;-56
2022/09/17 05:56:10;;;;;;;;;;;;;;;10.28;84.30;101385.25;5133010;27;19957;-55
2022/09/17 05:58:35;;;;;;;;;;;;;;;10.33;84.65;101379.69;5101479;27;19915;-56
2022/09/17 06:01:00;;;;;;;;;;;;;;;10.36;84.48;101398.16;5118394;27;19923;-56
2022/09/17 06:03:26;;;;;;;;;;;;;;;10.39;83.72;101403.31;5136584;27;19911;-56
2022/09/17 06:05:54;;;;;;;;;;;;;;;10.40;83.59;101408.53;5124896;27;19916;-56
2022/09/17 06:08:20;;;;;;;;;;;;;;;10.41;83.45;101415.56;5115621;28;19912;-55
2022/09/17 06:10:45;;;;;;;;;;;;;;;10.42;85.55;101421.75;5115991;28;19964;-56
2022/09/17 06:13:10;;;;;;;;;;;;;;;10.42;85.13;101419.09;5116073;28;19912;-56
2022/09/17 06:15:36;;;;;;;;;;;;;;;10.40;86.40;101411.19;5130213;27;19930;-55
2022/09/17 06:18:01;;;;;;;;;;;;;;;10.38;86.17;101417.50;5136293;27;19912;-56
2022/09/17 06:20:26;;;;;;;;;;;;;;;10.37;86.03;101415.81;5117810;27;19915;-55
2022/09/17 06:22:58;;;;;;;;;;;;;;;10.37;86.72;101411.34;5117463;27;19918;-56
2022/09/17 06:25:23;;;;;;;;;;;;;;;10.37;86.02;101407.84;5116100;27;20370;-56
2022/09/17 06:27:49;;;;;;;;;;;;;;;10.39;85.54;101412.13;5117625;27;19911;-56
2022/09/17 06:30:14;;;;;;;;;;;;;;;10.41;85.77;101406.72;5117780;27;19919;-56
2022/09/17 06:32:39;;;;;;;;;;;;;;;10.39;85.62;101408.63;5135884;27;19915;-56
2022/09/17 06:35:05;;;;;;;;;;;;;;;10.40;84.63;101412.97;5105389;28;19943;-55
2022/09/17 06:37:31;;;;;;;;;;;;;;;10.39;85.00;101409.47;5096446;28;19919;-56
2022/09/17 06:39:58;;;;;;;;;;;;;;;10.43;84.72;101412.81;5097079;28;19912;-56
2022/09/17 06:42:23;;;;;;;;;;;;;;;10.45;84.64;101411.81;5097133;28;19957;-56
2022/09/17 06:44:48;;;;;;;;;;;;;;;10.46;84.14;101402.00;5116669;27;19916;-55
2022/09/17 06:47:14;;;;;;;;;;;;;;;10.50;85.22;101410.69;5096881;28;19916;-56
2022/09/17 06:49:39;;;;;;;;;;;;;;;10.50;84.87;101408.03;5096944;28;19958;-55
2022/09/17 06:52:04;;;;;;;;;;;;;;;10.52;85.42;101407.00;5115043;28;19916;-56
2022/09/17 06:54:30;;;;;;;;;;;;;;;10.54;85.37;101404.28;5106442;27;20394;-55
2022/09/17 06:56:55;;;;;;;;;;;;;;;10.56;85.90;101405.91;5135384;27;20248;-55
2022/09/17 06:59:20;;;;;;;;;;;;;;;10.58;85.40;101403.16;5135691;27;19924;-55
2022/09/17 07:01:46;;;;;;;;;;;;;;;10.60;85.26;101404.78;5135340;27;19915;-56
2022/09/17 07:04:11;;;;;;;;;;;;;;;10.63;85.49;101404.63;5133931;27;19923;-56
2022/09/17 07:06:36;;;;;;;;;;;;;;;10.68;84.83;101401.72;5134847;27;19915;-56
2022/09/17 07:09:02;;;;;;;;;;;;;;;10.73;85.17;101407.63;5117135;27;19912;-56
2022/09/17 07:11:29;;;;;;;;;;;;;;;10.84;85.49;101412.38;5116948;27;20249;-56
2022/09/17 07:13:57;;;;;;;;;;;;;;;10.95;85.43;101417.97;5128469;27;19916;-55
2022/09/17 07:16:22;;;;;;;;;;;;;;;11.02;85.18;101414.00;5114658;28;20286;-56
2022/09/17 07:18:48;;;;;;;;;;;;;;;11.14;82.95;101417.78;5114668;28;19912;-56
2022/09/17 07:21:13;;;;;;;;;;;;;;;11.18;85.17;101414.03;5114500;28;20414;-56
2022/09/17 07:23:38;;;;;;;;;;;;;;;11.27;85.55;101410.84;5097440;27;20374;-56
2022/09/17 07:26:05;;;;;;;;;;;;;;;11.38;85.65;101426.19;5096274;28;19919;-56
2022/09/17 07:28:30;;;;;;;;;;;;;;;11.47;86.36;101424.81;5096269;28;19951;-56
2022/09/17 07:30:56;;;;;;;;;;;;;;;11.52;85.82;101428.91;5095980;28;19973;-56
2022/09/17 07:33:23;;;;;;;;;;;;;;;11.57;85.78;101410.03;5118375;27;19927;-64
2022/09/17 07:35:59;;;;;;;;;;;;;;;11.66;84.61;101417.47;5134454;27;20297;-56
2022/09/17 07:38:25;;;;;;;;;;;;;;;11.73;85.07;101415.28;5134664;27;20385;-57
2022/09/17 07:40:54;;;;;;;;;;;;;;;11.86;84.81;101415.47;5134867;27;19922;-56
2022/09/17 07:43:22;;;;;;;;;;;;;;;12.00;85.07;101413.72;5115288;27;19919;-57
2022/09/17 07:45:47;;;;;;;;;;;;;;;12.13;84.52;101411.16;5115996;27;20388;-56
2022/09/17 07:48:12;;;;;;;;;;;;;;;12.17;82.95;101412.66;5134815;27;19911;-57
2022/09/17 07:50:38;;;;;;;;;;;;;;;12.22;82.83;101412.41;5116221;27;19915;-57
2022/09/17 07:53:03;;;;;;;;;;;;;;;12.33;82.17;101409.94;5134459;27;19915;-57
2022/09/17 07:55:28;;;;;;;;;;;;;;;12.39;81.97;101414.91;5132826;27;19915;-57
2022/09/17 07:57:54;;;;;;;;;;;;;;;12.48;81.84;101417.00;5134157;27;19915;-57
2022/09/17 08:00:19;;;;;;;;;;;;;;;12.49;81.37;101413.38;5134055;27;20022;-57
2022/09/17 08:02:45;;;;;;;;;;;;;;;12.48;81.19;101422.34;5133922;27;19961;-56
2022/09/17 08:05:10;;;;;;;;;;;;;;;12.57;81.21;101414.72;5132712;27;19915;-56
2022/09/17 08:07:35;;;;;;;;;;;;;;;12.68;81.54;101413.09;5133894;27;19921;-57
2022/09/17 08:10:01;;;;;;;;;;;;;;;12.84;81.27;101414.78;5116149;27;19912;-57
2022/09/17 08:12:28;;;;;;;;;;;;;;;13.05;80.79;101415.22;5134338;27;19935;-56
2022/09/17 08:14:53;;;;;;;;;;;;;;;13.25;80.57;101420.16;5123254;27;19962;-56
2022/09/17 08:17:21;;;;;;;;;;;;;;;13.42;79.87;101418.22;5095247;28;20337;-56
2022/09/17 08:19:46;;;;;;;;;;;;;;;13.52;79.81;101422.81;5113408;28;19912;-56
2022/09/17 08:22:11;;;;;;;;;;;;;;;13.65;79.07;101417.53;5113051;28;19923;-56
2022/09/17 08:24:41;;;;;;;;;;;;;;;13.74;78.42;101424.09;5114590;27;19919;-56
2022/09/17 08:27:06;;;;;;;;;;;;;;;13.92;77.72;101425.50;5113289;28;20358;-57
2022/09/17 08:29:32;;;;;;;;;;;;;;;14.03;75.63;101422.97;5113284;28;19994;-56
2022/09/17 08:31:57;;;;;;;;;;;;;;;14.08;72.96;101411.94;5113038;28;19947;-56
2022/09/17 08:34:22;;;;;;;;;;;;;;;14.19;74.37;101419.22;5120994;27;19916;-56
2022/09/17 08:36:48;;;;;;;;;;;;;;;14.36;73.95;101421.59;5133194;27;20003;-56
2022/09/17 08:39:13;;;;;;;;;;;;;;;14.47;72.81;101420.81;5133868;27;20285;-56
2022/09/17 08:41:38;;;;;;;;;;;;;;;14.54;73.00;101422.16;5115246;27;19941;-56
2022/09/17 08:44:04;;;;;;;;;;;;;;;14.63;73.62;101420.66;5132019;27;20381;-56
2022/09/17 08:46:34;;;;;;;;;;;;;;;14.79;73.41;101426.59;5133616;27;19936;-57
2022/09/17 08:49:19;;;;;;;;;;;;;;;14.97;72.22;101428.00;5133557;27;20435;-57
2022/09/17 08:51:53;;;;;;;;;;;;;;;15.16;71.81;101430.16;5132990;27;20403;-56
2022/09/17 08:54:34;;;;;;;;;;;;;;;15.33;71.30;101433.44;5133713;27;19912;-56
2022/09/17 08:57:17;;;;;;;;;;;;;;;15.48;69.42;101435.00;5114701;27;19915;-56
2022/09/17 08:59:57;;;;;;;;;;;;;;;15.57;68.50;101438.81;5133345;27;19931;-56
2022/09/17 09:02:41;;;;;;;;;;;;;;;15.72;69.07;101440.38;5133420;27;20006;-57
2022/09/17 09:05:14;;;;;;;;;;;;;;;15.85;68.91;101441.16;5122376;27;19911;-57
2022/09/17 09:07:43;;;;;;;;;;;;;;;16.00;68.15;101436.47;5112263;28;20263;-56
2022/09/17 09:10:14;;;;;;;;;;;;;;;16.05;66.92;101433.41;5094712;28;19912;-57
2022/09/17 09:12:41;;;;;;;;;;;;;;;15.96;66.81;101442.16;5112519;28;19912;-57
2022/09/17 09:15:16;;;;;;;;;;;;;;;15.77;67.87;101443.56;5111930;28;19945;-56
2022/09/17 09:17:43;;;;;;;;;;;;;;;15.52;68.35;101447.19;5113675;28;19923;-56
2022/09/17 09:20:17;;;;;;;;;;;;;;;15.28;68.91;101446.31;5112493;28;19959;-56
2022/09/17 09:22:50;;;;;;;;;;;;;;;15.08;70.01;101453.13;5112152;28;19912;-56
2022/09/17 09:25:19;;;;;;;;;;;;;;;15.04;70.29;101444.47;5099086;28;19919;-57
2022/09/17 09:28:03;;;;;;;;;;;;;;;15.22;70.78;101436.91;5132781;27;19919;-57
2022/09/17 09:30:39;;;;;;;;;;;;;;;15.57;70.29;101444.19;5114572;28;20400;-57
2022/09/17 09:33:16;;;;;;;;;;;;;;;15.94;69.16;101444.09;5133068;27;20293;-57
2022/09/17 09:35:43;;;;;;;;;;;;;;;16.12;68.07;101435.50;5131527;28;19923;-56
2022/09/17 09:38:08;;;;;;;;;;;;;;;16.32;65.85;101435.78;5114084;28;19934;-57
2022/09/17 09:40:40;;;;;;;;;;;;;;;16.63;67.36;101438.75;5132781;28;20370;-57
2022/09/17 09:43:16;;;;;;;;;;;;;;;16.65;65.99;101450.22;5132699;28;19954;-56
2022/09/17 09:45:41;;;;;;;;;;;;;;;16.44;63.70;101444.72;5122042;28;19922;-57
2022/09/17 09:48:11;;;;;;;;;;;;;;;16.21;65.36;101441.16;5100175;28;19915;-56
2022/09/17 09:50:47;;;;;;;;;;;;;;;16.05;65.74;101446.81;5112200;28;19911;-57
2022/09/17 09:53:37;;;;;;;;;;;;;;;15.87;64.58;101446.41;5111892;28;20438;-56
2022/09/17 09:56:14;;;;;;;;;;;;;;;15.72;65.52;101444.88;5103144;28;19922;-57
2022/09/17 09:58:40;;;;;;;;;;;;;;;15.58;64.06;101453.91;5127835;28;19915;-57
2022/09/17 10:01:13;;;;;;;;;;;;;;;15.38;63.79;101450.91;5110325;28;19976;-57
2022/09/17 10:03:40;;;;;;;;;;;;;;;15.17;63.95;101458.66;5107316;28;20285;-57
2022/09/17 10:06:09;;;;;;;;;;;;;;;15.12;63.66;101452.81;5115397;28;19995;-57
2022/09/17 10:08:39;;;;;;;;;;;;;;;15.31;63.14;101451.47;5111872;28;19998;-57
2022/09/17 10:11:07;;;;;;;;;;;;;;;15.52;63.49;101454.38;5109592;28;19916;-57
2022/09/17 10:13:37;;;;;;;;;;;;;;;15.83;64.64;101439.56;5126282;28;19915;-57
2022/09/17 10:16:18;;;;;;;;;;;;;;;16.26;64.35;101447.00;5112575;28;19918;-56
2022/09/17 10:18:44;;;;;;;;;;;;;;;16.76;60.21;101452.94;5115161;28;20018;-56
2022/09/17 10:21:20;;;;;;;;;;;;;;;16.93;60.83;101452.44;5096299;28;20007;-56
2022/09/17 10:23:46;;;;;;;;;;;;;;;17.00;59.96;101453.69;5117970;28;19916;-56
2022/09/17 10:26:22;;;;;;;;;;;;;;;17.18;60.85;101451.34;5094700;28;19917;-57
2022/09/17 10:28:52;;;;;;;;;;;;;;;17.42;59.52;101434.19;5115742;27;20297;-56
2022/09/17 10:31:18;;;;;;;;;;;;;;;17.69;60.00;101448.00;5121737;27;19911;-57
2022/09/17 10:33:49;;;;;;;;;;;;;;;18.06;57.19;101438.69;5105861;28;19965;-57
2022/09/17 10:36:14;;;;;;;;;;;;;;;18.29;56.60;101442.09;5110964;27;20380;-57
2022/09/17 10:38:41;;;;;;;;;;;;;;;18.20;57.18;101435.66;5104856;27;19942;-56
2022/09/17 10:41:12;;;;;;;;;;;;;;;17.75;58.92;101438.56;5096586;28;19965;-56
2022/09/17 10:43:40;;;;;;;;;;;;;;;17.19;59.98;101458.41;5099612;27;19916;-55
2022/09/17 10:46:29;;;;;;;;;;;;;;;16.73;62.46;101448.63;5131135;27;20014;-56
2022/09/17 10:49:13;;;;;;;;;;;;;;;16.35;64.06;101444.47;5101908;27;20379;-56
2022/09/17 10:51:41;;;;;;;;;;;;;;;16.33;64.41;101448.25;5123066;27;19915;-57
2022/09/17 10:54:14;;;;;;;;;;;;;;;16.52;65.07;101451.19;5114469;28;19912;-56
2022/09/17 10:56:41;;;;;;;;;;;;;;;16.53;65.31;101446.66;5096228;28;19916;-57
2022/09/17 10:59:18;;;;;;;;;;;;;;;16.46;65.14;101445.44;5134715;27;19940;-55
2022/09/17 11:01:47;;;;;;;;;;;;;;;16.40;64.61;101443.25;5117161;27;20015;-57
2022/09/17 11:04:12;;;;;;;;;;;;;;;16.45;64.00;101439.22;5135791;27;20370;-56
2022/09/17 11:06:56;;;;;;;;;;;;;;;16.95;64.37;101442.44;5111439;27;19926;-56
2022/09/17 11:09:21;;;;;;;;;;;;;;;17.17;62.95;101443.38;5135167;27;20365;-56
2022/09/17 11:11:49;;;;;;;;;;;;;;;17.22;62.96;101443.88;5135418;27;19915;-56
2022/09/17 11:14:34;;;;;;;;;;;;;;;17.14;62.97;101438.25;5130794;27;19924;-56
2022/09/17 11:17:06;;;;;;;;;;;;;;;16.91;62.92;101438.31;5114047;28;19916;-56
2022/09/17 11:19:37;;;;;;;;;;;;;;;17.00;63.73;101434.00;5120858;27;19937;-56
2022/09/17 11:22:14;;;;;;;;;;;;;;;17.34;63.61;101432.09;5126378;27;19920;-56
2022/09/17 11:24:53;;;;;;;;;;;;;;;18.09;62.81;101415.06;5114928;28;19968;-56
2022/09/17 11:27:21;;;;;;;;;;;;;;;19.22;61.79;101430.34;5107700;27;19915;-56
2022/09/17 11:29:52;;;;;;;;;;;;;;;19.70;57.71;101427.72;5135408;27;19959;-56
2022/09/17 11:32:35;;;;;;;;;;;;;;;20.06;55.84;101419.00;5129864;27;20389;-57
2022/09/17 11:35:05;;;;;;;;;;;;;;;21.01;54.18;101426.13;5114555;28;19912;-56
2022/09/17 11:37:34;;;;;;;;;;;;;;;21.31;50.59;101423.09;5113054;28;19947;-56
2022/09/17 11:40:12;;;;;;;;;;;;;;;21.28;51.81;101426.09;5099495;27;19916;-57
2022/09/17 11:42:47;;;;;;;;;;;;;;;20.64;52.66;101418.88;5109307;28;19915;-57
2022/09/17 11:45:15;;;;;;;;;;;;;;;19.57;52.15;101421.72;5092607;28;19994;-56
2022/09/17 11:47:44;;;;;;;;;;;;;;;18.92;55.29;101420.47;5093793;28;20383;-56
2022/09/17 11:50:36;;;;;;;;;;;;;;;19.01;55.36;101430.44;5102789;27;20031;-56
2022/09/17 11:53:05;;;;;;;;;;;;;;;20.59;54.25;101422.06;5114219;27;20351;-56
2022/09/17 11:55:44;;;;;;;;;;;;;;;21.86;54.58;101429.41;5128250;27;19915;-56
2022/09/17 11:58:14;;;;;;;;;;;;;;;23.51;49.90;101422.00;5113959;28;20335;-57
2022/09/17 12:00:44;;;;;;;;;;;;;;;24.52;44.69;101429.81;5090343;28;20287;-57
2022/09/17 12:03:17;;;;;;;;;;;;;;;25.13;43.64;101417.34;5105617;28;19916;-56
2022/09/17 12:05:48;;;;;;;;;;;;;;;25.38;45.94;101418.06;5097134;28;20950;-57
2022/09/17 12:08:17;;;;;;;;;;;;;;;25.30;40.78;101422.72;5102198;28;19969;-57
2022/09/17 12:10:48;;;;;;;;;;;;;;;25.38;41.74;101419.91;5091673;28;19916;-56
2022/09/17 12:13:29;;;;;;;;;;;;;;;25.76;40.66;101417.25;5132223;27;19916;-56
2022/09/17 12:16:01;;;;;;;;;;;;;;;26.21;41.26;101415.56;5105156;28;19920;-56
2022/09/17 12:18:46;;;;;;;;;;;;;;;26.83;43.08;101398.84;5103162;28;20325;-56
2022/09/17 12:21:14;;;;;;;;;;;;;;;27.58;40.07;101399.50;5103831;28;20465;-56
2022/09/17 12:23:43;;;;;;;;;;;;;;;27.98;38.44;101402.63;5107110;28;20256;-56
2022/09/17 12:26:14;;;;;;;;;;;;;;;28.56;34.16;101396.91;5093046;28;20362;-56
2022/09/17 12:28:57;;;;;;;;;;;;;;;28.80;34.86;101399.19;5095768;28;20118;-56
2022/09/17 12:31:29;;;;;;;;;;;;;;;29.02;33.46;101391.69;5108097;28;19916;-56
2022/09/17 12:34:03;;;;;;;;;;;;;;;28.99;38.30;101381.13;5112383;28;19911;-56
2022/09/17 12:36:34;;;;;;;;;;;;;;;28.78;32.85;101392.22;5111505;28;19912;-57
2022/09/17 12:39:20;;;;;;;;;;;;;;;29.14;36.69;101389.19;5112041;28;19951;-56
2022/09/17 12:42:08;;;;;;;;;;;;;;;29.53;32.38;101387.59;5092749;28;19916;-56
2022/09/17 12:44:34;;;;;;;;;;;;;;;29.32;33.84;101383.97;5082445;28;19920;-56
2022/09/17 12:47:11;;;;;;;;;;;;;;;28.65;35.25;101382.88;5091255;28;19938;-56